• Join FlightAware (Why Join?)
  • Login
  • US Flag 
12:31PM EDT


 

Airport Tracker/Info


-or-


 

Live Flight TrackerFlight Track Log ✈ WBR2634 ✈ 22-Jul-2013 ✈ KBRL - KORD

Flight Track Log - Related Links

Times and Time Zones

All times are in EDT time to prevent confusion due to time zone crossing. See the WBR2634 flight status page for this flight to view local times or setup timezone preferences in your user account.

Time Position Orientation Groundspeed Altitude Reporting Facility
EDT Latitude Longitude Course Direction KTS MPH feet Rate Location/Type
05:38PM 40.7667 -91.0608 73° East 125 144 2,300  Level Chicago Center
05:39PM 40.8490 -90.8041 72° East  Level FlightAware Approximate
05:39PM 40.7817 -91.0203 64° Northeast 122 140 3,000  Level Chicago Center
05:40PM 40.8667 -90.7557 90° East  Level FlightAware Approximate
05:40PM 40.7969 -90.9781 64° Northeast 124 143 3,700  Level Chicago Center
05:41PM 40.8784 -90.7030 72° East  Level FlightAware Approximate
05:41PM 40.8106 -90.9342 68° East 127 146 4,400  Level Chicago Center
05:42PM 40.8910 -90.6503 73° East  Level FlightAware Approximate
05:42PM 40.8256 -90.8928 64° Northeast 126 145 5,000  Level Chicago Center
05:43PM 40.9033 -90.5975 73° East  Level FlightAware Approximate
05:43PM 40.8439 -90.8431 64° Northeast 126 145 5,700  Level Chicago Center
05:44PM 40.8583 -90.8000 66° East 128 147 6,300 540 Climbing Chicago Center
05:45PM 40.8725 -90.7581 66° East 126 145 6,900 480 Climbing Chicago Center
05:46PM 40.8875 -90.7150 65° Northeast 128 147 7,400 480 Climbing Chicago Center
05:47PM 40.9039 -90.6733 62° Northeast 128 147 7,900 480 Climbing Chicago Center
05:48PM 40.9208 -90.6325 61° Northeast 126 145 8,400 480 Climbing Chicago Center
05:49PM 40.9372 -90.5822 67° East 123 142 9,000 240 Climbing Chicago Center
05:50PM 40.9544 -90.5372 63° Northeast 134 154 9,000  Level Chicago Center
05:51PM 40.9714 -90.4853 67° East 149 171 9,000  Level Chicago Center
05:52PM 40.9906 -90.4392 61° Northeast 146 168 9,000  Level Chicago Center
05:53PM 41.0058 -90.3894 68° East 146 168 9,000  Level Chicago Center
05:55PM 41.0239 -90.3417 63° Northeast 145 167 9,000  Level Chicago Center
05:56PM 41.0406 -90.2906 67° East 149 171 9,000  Level Chicago Center
05:57PM 41.0603 -90.2311 66° East 148 170 9,100  Climbing Chicago Center
05:58PM 41.0792 -90.1819 63° Northeast 149 171 9,000 -60 Descending Chicago Center
05:59PM 41.0967 -90.1317 65° Northeast 149 171 9,000  Level Chicago Center
06:00PM 41.1133 -90.0847 65° Northeast 143 165 9,000  Level Chicago Center
06:01PM 41.1314 -90.0353 64° Northeast 147 169 9,000  Level Chicago Center
06:02PM 41.1469 -89.9872 67° East 144 166 9,000  Level Chicago Center
06:03PM 41.1678 -89.9278 65° Northeast 147 169 9,100  Climbing Chicago Center
06:04PM 41.1853 -89.8767 66° East 149 171 9,100  Level Chicago Center
06:05PM 41.2033 -89.8283 64° Northeast 147 169 9,100  Level Chicago Center
06:06PM 41.2206 -89.7758 66° East 152 175 9,100  Level Chicago Center
06:07PM 41.2378 -89.7253 66° East 152 175 9,100  Level Chicago Center
06:08PM 41.2544 -89.6756 66° East 148 170 9,100  Level Chicago Center
06:09PM 41.2728 -89.6250 64° Northeast 151 174 9,100  Level Chicago Center
06:10PM 41.2939 -89.5650 65° Northeast 149 171 9,100  Level Chicago Center
06:11PM 41.3111 -89.5131 66° East 153 176 9,100  Level Chicago Center
06:12PM 41.3294 -89.4622 64° Northeast 152 175 9,100  Level Chicago Center
06:13PM 41.3467 -89.4128 65° Northeast 148 170 9,100  Level Chicago Center
06:14PM 41.3639 -89.3625 65° Northeast 148 170 9,100 -60 Level Chicago Center
06:15PM 41.3808 -89.3117 66° East 149 171 9,000  Descending Chicago Center
06:16PM 41.4014 -89.2519 65° Northeast 148 170 9,100  Climbing Chicago Center
06:17PM 41.4186 -89.2025 65° Northeast 147 169 9,100  Level Chicago Center
06:18PM 41.4319 -89.1575 68° East 144 166 9,100 -300 Level Chicago Center
06:19PM 41.4525 -89.0947 66° East 153 176 8,600 -480 Descending Chicago Center
06:20PM 41.4694 -89.0422 67° East 154 177 8,200 -300 Descending Chicago Center
06:21PM 41.4872 -88.9906 65° Northeast 154 177 8,100 -60 Descending Chicago Center
06:22PM 41.5053 -88.9378 65° Northeast 156 180 8,100 -60 Level Chicago Center
06:23PM 41.5219 -88.8836 68° East 159 183 8,000  Descending Chicago Center
06:25PM 41.5447 -88.8228 63° Northeast 152 175 8,100  Climbing Chicago Center
06:26PM 41.5611 -88.7739 66° East 147 169 8,100  Level Chicago Center
06:27PM 41.5769 -88.7219 68° East 151 174 8,100  Level Chicago Center
06:28PM 41.5942 -88.6708 66° East 151 174 8,100  Level Chicago Center
06:29PM 41.6117 -88.6164 67° East 159 183 8,100  Level Chicago Center
06:30PM 41.6408 -88.5608 55° Northeast 153 176 8,100 -60 Level Chicago Center
06:31PM 41.6511 -88.5056 76° East 152 175 8,000 -60 Descending Chicago Center
06:32PM 41.6636 -88.4486 74° East 158 182 8,000  Level Chicago Center
06:33PM 41.6747 -88.3917 75° East 159 183 8,000 -60 Level Chicago Center
06:34PM 41.6856 -88.3353 76° East 158 182 7,900 -240 Descending Chicago Center
06:35PM 41.7072 -88.2856 60° Northeast 157 181 7,600 -480 Descending Chicago Center
06:36PM 41.7467 -88.2400 41° Northeast 155 178 7,000 -360 Descending Chicago Center
06:37PM 41.7775 -88.2022 42° Northeast 152 175 6,900 -60 Descending Chicago Center
06:38PM 41.7978 -88.1522 61° Northeast 154 177 6,900  Level Chicago Center
06:39PM 41.8206 -88.1044 57° Northeast 154 177 6,900  Level Chicago Center
06:40PM 41.8469 -88.0594 52° Northeast 153 176 6,900  Level Chicago Center
06:41PM 41.8833 -88.0000 51° Northeast 151 174 6,900  Level Chicago TRACON
06:42PM 41.8833 -87.9500 90° East 156 180 6,900 -120 Level Chicago TRACON
06:44PM 41.9000 -87.8500 77° East 157 181 6,700 -480 Descending Chicago TRACON
06:45PM 41.9000 -87.7833 90° East 174 200 5,600 -1,260 Descending Chicago TRACON
06:46PM 41.9336 -87.7378 45° Northeast 177 204 3,900 -1,500 Descending Chicago Center
06:47PM 41.9619 -87.7992 302° West 172 198 2,100 -1,320 Descending Chicago Center
06:48PM 41.9697 -87.8439 283° West 167 192 1,200 -900 Descending Chicago Center
06:50PM 41.9667 -87.9000 304° West  Level FlightAware Approximate